| Date | Time | Temp. (oF) | Dew Point (oF) | Rel. Hum. (%) | Press. (in.) | Wind Dir. (deg.) | Wind Speed (mph) | Hourly Rainfall (i n.) |
|
|---|---|---|---|---|---|---|---|---|---|
| 1 | 07/12 | 24:00 | 63 | 51 | 67 | 30.41 | 10 | 0 | 0.00 |
| 2 | 07/11 | 23:00 | 66 | 52 | 62 | 30.41 | 10 | 0 | 0.00 |
| 3 | 07/11 | 22:00 | 69 | 51 | 54 | 30.40 | 10 | 0 | 0.00 |
| 4 | 07/11 | 21:00 | 71 | 49 | 46 | 30.43 | 10 | 1 | 0.00 |
| 5 | 07/11 | 20:00 | 74 | 49 | 43 | 30.43 | 10 | 1 | 0.00 |
| 6 | 07/11 | 19:00 | 77 | 51 | 41 | 30.40 | 10 | 2 | 0.00 |
| 7 | 07/11 | 18:00 | 79 | 50 | 38 | 30.41 | 350 | 2 | 0.00 |
| 8 | 07/11 | 17:00 | 80 | 51 | 38 | 30.40 | 50 | 2 | 0.00 |
| 9 | 07/11 | 16:00 | 80 | 50 | 36 | 30.44 | 310 | 4 | 0.00 |
| 10 | 07/11 | 15:00 | 82 | 51 | 35 | 30.42 | 310 | 6 | 0.00 |
| 11 | 07/11 | 14:00 | 83 | 53 | 36 | 30.41 | 270 | 10 | 0.00 |
| 12 | 07/11 | 13:00 | 82 | 53 | 38 | 30.40 | 290 | 6 | 0.00 |
| 13 | 07/11 | 12:00 | 81 | 53 | 39 | 30.40 | 280 | 10 | 0.00 |
| 14 | 07/11 | 11:00 | 76 | 52 | 45 | 30.38 | 270 | 7 | 0.00 |
| 15 | 07/11 | 10:00 | 66 | 52 | 61 | 30.38 | 10 | 4 | 0.00 |
| 16 | 07/11 | 09:00 | 62 | 51 | 69 | 30.37 | 330 | 6 | 0.00 |
| 17 | 07/11 | 08:00 | 58 | 51 | 78 | 30.35 | 340 | 2 | 0.00 |
| 18 | 07/11 | 07:00 | 55 | 50 | 84 | 30.33 | 360 | 0 | 0.00 |
| 19 | 07/11 | 06:00 | 56 | 49 | 80 | 30.31 | 360 | 0 | 0.00 |
| 20 | 07/11 | 05:00 | 57 | 49 | 75 | 30.29 | 360 | 0 | 0.00 |
| 21 | 07/11 | 04:00 | 58 | 48 | 71 | 30.28 | 360 | 0 | 0.00 |
| 22 | 07/11 | 03:00 | 60 | 49 | 68 | 30.28 | 360 | 0 | 0.00 |
| 23 | 07/11 | 02:00 | 62 | 51 | 68 | 30.28 | 30 | 1 | 0.00 |
| 24 | 07/11 | 01:00 | 63 | 52 | 68 | 30.27 | 10 | 2 | 0.00 |